createdAt,value
2018-08-31T00:01:58.998Z,13.73
2018-08-31T00:04:39.738Z,13.70
2018-08-31T00:07:28.788Z,13.65
2018-08-31T00:10:09.579Z,13.62
2018-08-31T00:12:38.496Z,13.59
2018-08-31T00:15:06.979Z,13.56
2018-08-31T00:17:35.379Z,13.52
2018-08-31T00:20:03.490Z,13.49
2018-08-31T00:22:31.671Z,13.44
2018-08-31T00:25:11.040Z,13.40
2018-08-31T00:27:50.499Z,13.36
2018-08-31T00:30:30.062Z,13.35
2018-08-31T00:33:10.887Z,13.34
2018-08-31T00:38:08.772Z,13.32
2018-08-31T00:41:52.903Z,13.22
2018-08-31T00:44:30.012Z,13.16
2018-08-31T00:46:58.075Z,13.13
2018-08-31T00:49:26.128Z,13.10
2018-08-31T00:51:54.267Z,13.10
2018-08-31T00:54:22.369Z,13.09
2018-08-31T00:56:50.445Z,13.07
2018-08-31T00:59:18.506Z,13.09
2018-08-31T01:01:46.563Z,13.12
2018-08-31T01:04:14.636Z,13.16
2018-08-31T01:06:42.708Z,13.17
2018-08-31T01:09:10.766Z,13.16
2018-08-31T01:11:39.097Z,13.09
2018-08-31T01:14:07.127Z,13.05
2018-08-31T01:16:35.239Z,13.00
2018-08-31T01:19:03.312Z,12.97
2018-08-31T01:21:31.396Z,12.93
2018-08-31T01:23:59.499Z,12.83
2018-08-31T01:26:27.720Z,12.74
2018-08-31T01:28:55.763Z,12.74
2018-08-31T01:31:23.822Z,12.72
2018-08-31T01:33:51.883Z,12.68
2018-08-31T01:36:19.959Z,12.66
2018-08-31T01:38:48.035Z,12.65
2018-08-31T01:41:16.118Z,12.64
2018-08-31T01:43:44.204Z,12.65
2018-08-31T01:46:12.255Z,12.61
2018-08-31T01:48:40.319Z,12.57
2018-08-31T01:51:13.822Z,12.57
2018-08-31T01:53:41.919Z,12.49
2018-08-31T01:56:09.989Z,12.42
2018-08-31T01:58:38.039Z,12.38
2018-08-31T02:01:06.168Z,12.36
2018-08-31T02:03:34.255Z,12.35
2018-08-31T02:06:02.319Z,12.34
2018-08-31T02:08:30.451Z,12.36
2018-08-31T02:10:58.513Z,12.39
2018-08-31T02:13:26.584Z,12.38
2018-08-31T02:15:54.637Z,12.34
2018-08-31T02:18:22.743Z,12.33
2018-08-31T02:20:51.307Z,12.41
2018-08-31T02:23:19.484Z,12.45
2018-08-31T02:25:47.595Z,12.47
2018-08-31T02:28:15.737Z,12.48
2018-08-31T02:30:43.797Z,12.50
2018-08-31T02:33:11.890Z,12.54
2018-08-31T02:35:39.957Z,12.56
2018-08-31T02:38:08.013Z,12.62
2018-08-31T02:40:36.085Z,12.63
2018-08-31T02:43:04.175Z,12.68
2018-08-31T02:45:32.464Z,12.71
2018-08-31T02:48:00.534Z,12.74
2018-08-31T02:50:28.581Z,12.73
2018-08-31T02:53:03.007Z,12.70
2018-08-31T02:58:05.700Z,12.71
2018-08-31T03:00:33.794Z,12.73
2018-08-31T03:03:02.574Z,12.75
2018-08-31T03:05:31.253Z,12.76
2018-08-31T03:07:59.353Z,12.74
2018-08-31T03:10:27.402Z,12.64
2018-08-31T03:12:55.474Z,12.60
2018-08-31T03:15:23.531Z,12.53
2018-08-31T03:17:51.621Z,12.54
2018-08-31T03:20:19.699Z,12.54
2018-08-31T03:22:47.748Z,12.54
2018-08-31T03:25:15.833Z,12.51
2018-08-31T03:27:43.957Z,12.43
2018-08-31T03:30:12.009Z,12.38
2018-08-31T03:32:40.092Z,12.28
2018-08-31T03:35:08.316Z,12.28
2018-08-31T03:37:36.392Z,12.23
2018-08-31T03:40:04.532Z,12.19
2018-08-31T03:42:32.601Z,12.16
2018-08-31T03:45:00.673Z,12.10
2018-08-31T03:47:28.743Z,12.04
2018-08-31T03:49:56.816Z,11.98
2018-08-31T03:52:24.880Z,11.94
2018-08-31T03:54:52.972Z,11.93
2018-08-31T03:57:21.058Z,11.93
2018-08-31T03:59:49.147Z,11.96
2018-08-31T04:02:17.397Z,12.00
2018-08-31T04:04:45.479Z,11.97
2018-08-31T04:07:13.548Z,11.91
2018-08-31T04:09:41.805Z,11.92
2018-08-31T04:12:09.837Z,11.89
2018-08-31T04:14:37.915Z,11.84
2018-08-31T04:17:06.019Z,11.87
2018-08-31T04:19:34.084Z,11.90
2018-08-31T04:22:02.165Z,11.92
2018-08-31T04:24:30.259Z,11.90
2018-08-31T04:26:58.316Z,11.89
2018-08-31T04:29:26.412Z,11.89
2018-08-31T04:31:54.460Z,11.92
2018-08-31T04:34:22.587Z,11.94
2018-08-31T04:36:50.692Z,11.95
2018-08-31T04:39:18.780Z,11.94
2018-08-31T04:41:46.858Z,11.93
2018-08-31T04:44:15.076Z,11.94
2018-08-31T04:46:43.187Z,11.97
2018-08-31T04:49:11.270Z,11.98
2018-08-31T04:51:40.126Z,11.99
2018-08-31T04:54:08.189Z,12.04
2018-08-31T04:56:36.280Z,12.12
2018-08-31T04:59:08.755Z,12.13
2018-08-31T05:01:36.830Z,12.18
2018-08-31T05:04:04.932Z,12.20
2018-08-31T05:06:32.999Z,12.17
2018-08-31T05:09:01.129Z,12.28
2018-08-31T05:11:29.909Z,12.44
2018-08-31T05:13:57.991Z,12.64
2018-08-31T05:16:26.080Z,12.73
2018-08-31T05:18:54.138Z,12.81
2018-08-31T05:21:22.440Z,12.94
2018-08-31T05:23:50.548Z,12.99
2018-08-31T05:26:18.766Z,13.10
2018-08-31T05:28:46.903Z,13.24
2018-08-31T05:31:14.992Z,13.26
2018-08-31T05:33:43.063Z,13.26
2018-08-31T05:36:11.128Z,13.25
2018-08-31T05:38:46.756Z,13.31
2018-08-31T05:41:14.806Z,13.41
2018-08-31T05:43:42.850Z,13.48
2018-08-31T05:46:17.912Z,13.57
2018-08-31T05:48:49.463Z,13.74
2018-08-31T05:51:20.291Z,13.85
2018-08-31T05:53:48.397Z,13.98
2018-08-31T05:56:16.475Z,14.12
2018-08-31T05:58:45.480Z,14.20
2018-08-31T06:01:13.606Z,14.35
2018-08-31T06:03:41.643Z,14.56
2018-08-31T06:06:09.699Z,14.77
2018-08-31T06:08:37.781Z,14.97
2018-08-31T06:11:06.793Z,15.24
2018-08-31T06:13:34.846Z,15.49
2018-08-31T06:16:02.888Z,15.67
2018-08-31T06:18:30.920Z,15.77
2018-08-31T06:20:59.109Z,15.81
2018-08-31T06:23:27.124Z,15.86
2018-08-31T06:25:55.276Z,15.88
2018-08-31T06:31:10.791Z,16.01
2018-08-31T06:33:39.547Z,16.06
2018-08-31T06:36:08.589Z,16.10
2018-08-31T06:38:37.351Z,16.20
2018-08-31T06:41:06.186Z,16.34
2018-08-31T06:43:34.920Z,16.47
2018-08-31T06:46:03.763Z,16.60
2018-08-31T06:48:32.499Z,16.69
2018-08-31T06:51:00.571Z,16.78
2018-08-31T06:53:28.629Z,16.86
2018-08-31T06:55:56.711Z,16.98
2018-08-31T06:58:24.801Z,17.05
2018-08-31T07:00:52.851Z,17.21
2018-08-31T07:03:20.875Z,17.43
2018-08-31T07:05:49.226Z,17.58
2018-08-31T07:08:17.264Z,17.60
2018-08-31T07:10:45.303Z,17.61
2018-08-31T07:13:13.432Z,17.66
2018-08-31T07:15:41.618Z,17.51
2018-08-31T07:18:09.732Z,17.50
2018-08-31T07:20:37.913Z,17.53
2018-08-31T07:23:05.977Z,17.55
2018-08-31T07:25:34.027Z,17.54
2018-08-31T07:28:02.112Z,17.56
2018-08-31T07:30:30.195Z,17.44
2018-08-31T07:32:58.409Z,17.53
2018-08-31T07:35:26.539Z,17.64
2018-08-31T07:37:54.594Z,17.70
2018-08-31T07:40:22.623Z,17.78
2018-08-31T07:42:50.647Z,17.95
2018-08-31T07:45:18.858Z,17.91
2018-08-31T07:47:47.014Z,17.89
2018-08-31T07:50:15.054Z,17.92
2018-08-31T07:52:43.084Z,18.05
2018-08-31T07:55:11.111Z,18.31
2018-08-31T07:57:39.868Z,18.61
2018-08-31T08:00:07.946Z,18.85
2018-08-31T08:02:35.979Z,19.01
2018-08-31T08:05:04.135Z,19.15
2018-08-31T08:07:32.183Z,19.35
2018-08-31T08:10:00.243Z,19.39
2018-08-31T08:12:28.349Z,19.35
2018-08-31T08:14:56.384Z,19.55
2018-08-31T08:17:24.423Z,19.61
2018-08-31T08:19:52.463Z,19.64
2018-08-31T08:22:20.495Z,19.72
2018-08-31T08:24:48.979Z,19.87
2018-08-31T08:27:17.055Z,19.93
2018-08-31T08:29:45.526Z,20.02
2018-08-31T08:32:13.649Z,20.11
2018-08-31T08:34:41.809Z,19.99
2018-08-31T08:37:09.859Z,20.05
2018-08-31T08:39:37.985Z,20.10
2018-08-31T08:42:06.199Z,20.19
2018-08-31T08:44:34.187Z,20.24
2018-08-31T08:47:02.308Z,20.28
2018-08-31T08:49:30.746Z,20.29
2018-08-31T08:52:02.751Z,20.25
2018-08-31T08:54:31.930Z,20.23
2018-08-31T08:57:00.659Z,20.27
2018-08-31T08:59:28.789Z,20.21
2018-08-31T09:01:57.923Z,20.12
2018-08-31T09:04:27.428Z,20.30
2018-08-31T09:06:55.667Z,20.41
2018-08-31T09:09:23.846Z,20.19
2018-08-31T09:11:51.993Z,19.91
2018-08-31T09:14:20.074Z,19.87
2018-08-31T09:16:48.341Z,19.90
2018-08-31T09:19:16.463Z,19.87
2018-08-31T09:21:44.535Z,19.91
2018-08-31T09:24:12.646Z,20.10
2018-08-31T09:26:40.715Z,20.31
2018-08-31T09:29:08.795Z,20.23
2018-08-31T09:31:37.295Z,19.91
2018-08-31T09:34:05.385Z,20.13
2018-08-31T09:36:33.508Z,20.31
2018-08-31T09:39:02.011Z,20.62
2018-08-31T09:41:30.150Z,20.88
2018-08-31T09:43:58.505Z,21.12
2018-08-31T09:46:26.534Z,21.16
2018-08-31T09:48:54.607Z,21.27
2018-08-31T09:51:22.751Z,21.32
2018-08-31T09:53:50.800Z,21.38
2018-08-31T09:56:18.856Z,21.45
2018-08-31T09:58:46.910Z,21.52
2018-08-31T10:01:20.396Z,21.57
2018-08-31T10:03:48.492Z,21.43
2018-08-31T10:06:16.552Z,21.37
2018-08-31T10:08:44.747Z,21.29
2018-08-31T10:11:12.826Z,21.09
2018-08-31T10:13:40.903Z,21.15
2018-08-31T10:16:09.052Z,21.04
2018-08-31T10:18:37.167Z,20.82
2018-08-31T10:21:05.731Z,20.40
2018-08-31T10:23:33.854Z,20.40
2018-08-31T10:26:01.953Z,20.65
2018-08-31T10:28:30.105Z,20.83
2018-08-31T10:30:58.245Z,21.04
2018-08-31T10:33:26.314Z,21.24
2018-08-31T10:35:54.425Z,21.22
2018-08-31T10:38:22.530Z,20.99
2018-08-31T10:40:50.552Z,20.97
2018-08-31T10:43:18.599Z,21.02
2018-08-31T10:45:46.711Z,21.12
2018-08-31T10:48:14.876Z,21.20
2018-08-31T10:50:42.943Z,21.08
2018-08-31T10:53:11.025Z,21.10
2018-08-31T10:55:39.084Z,21.07
2018-08-31T10:58:07.604Z,20.85
2018-08-31T11:00:35.662Z,20.90
2018-08-31T11:03:03.725Z,20.93
2018-08-31T11:05:31.828Z,21.12
2018-08-31T11:07:59.857Z,21.28
2018-08-31T11:10:27.899Z,21.38
2018-08-31T11:12:56.024Z,20.74
2018-08-31T11:15:24.105Z,20.27
2018-08-31T11:17:52.127Z,20.42
2018-08-31T11:20:20.190Z,20.59
2018-08-31T11:22:48.279Z,20.77
2018-08-31T11:25:16.418Z,20.83
2018-08-31T11:27:44.501Z,20.92
2018-08-31T11:30:12.523Z,21.04
2018-08-31T11:32:40.594Z,20.98
2018-08-31T11:35:08.668Z,21.26
2018-08-31T11:37:36.767Z,21.37
2018-08-31T11:40:04.847Z,21.48
2018-08-31T11:42:32.882Z,21.58
2018-08-31T11:45:00.954Z,21.63
2018-08-31T11:47:29.076Z,21.77
2018-08-31T11:49:57.178Z,21.52
2018-08-31T11:52:25.215Z,21.57
2018-08-31T11:54:53.271Z,21.54
2018-08-31T11:57:21.323Z,21.49
2018-08-31T11:59:49.380Z,20.96
2018-08-31T12:02:17.487Z,20.70
2018-08-31T12:04:45.600Z,20.79
2018-08-31T12:07:13.646Z,20.65
2018-08-31T12:09:41.797Z,20.80
2018-08-31T12:12:09.831Z,21.00
2018-08-31T12:14:37.900Z,21.11
2018-08-31T12:17:06.089Z,21.25
2018-08-31T12:19:34.270Z,21.03
2018-08-31T12:22:02.438Z,20.79
2018-08-31T12:24:30.552Z,20.41
2018-08-31T12:26:58.739Z,20.50
2018-08-31T12:29:27.185Z,20.33
2018-08-31T12:31:55.398Z,20.27
2018-08-31T12:34:23.527Z,19.92
2018-08-31T12:36:51.588Z,20.14
2018-08-31T12:39:19.683Z,20.14
2018-08-31T12:41:47.788Z,20.36
2018-08-31T12:44:15.990Z,20.58
2018-08-31T12:46:44.012Z,20.56
2018-08-31T12:49:12.058Z,20.66
2018-08-31T12:51:40.145Z,20.66
2018-08-31T12:54:08.168Z,20.66
2018-08-31T12:56:42.783Z,20.62
2018-08-31T12:59:10.940Z,20.78
2018-08-31T13:01:39.316Z,20.98
2018-08-31T13:04:07.480Z,21.07
2018-08-31T13:06:35.524Z,20.79
2018-08-31T13:09:04.590Z,21.01
2018-08-31T13:11:32.649Z,21.16
2018-08-31T13:14:00.688Z,21.30
2018-08-31T13:16:28.744Z,21.01
2018-08-31T13:18:56.779Z,20.74
2018-08-31T13:21:24.873Z,21.03
2018-08-31T13:23:52.948Z,21.15
2018-08-31T13:26:21.563Z,21.21
2018-08-31T13:28:49.617Z,21.21
2018-08-31T13:31:17.739Z,21.12
2018-08-31T13:33:45.747Z,21.25
2018-08-31T13:36:13.791Z,21.34
2018-08-31T13:38:41.831Z,21.05
2018-08-31T13:41:09.887Z,21.15
2018-08-31T13:43:37.920Z,21.29
2018-08-31T13:46:05.959Z,21.32
2018-08-31T13:48:33.996Z,21.22
2018-08-31T13:51:02.119Z,21.34
2018-08-31T13:53:30.293Z,21.36
2018-08-31T13:55:58.357Z,21.32
2018-08-31T13:58:26.519Z,20.76
2018-08-31T14:00:54.549Z,20.83
2018-08-31T14:03:22.814Z,20.77
2018-08-31T14:05:50.868Z,20.82
2018-08-31T14:08:18.989Z,20.87
2018-08-31T14:10:47.044Z,20.87
2018-08-31T14:13:15.101Z,20.59
2018-08-31T14:15:43.283Z,20.87
2018-08-31T14:18:11.323Z,21.06
2018-08-31T14:20:39.376Z,20.97
2018-08-31T14:23:07.505Z,20.77
2018-08-31T14:25:36.056Z,20.55
2018-08-31T14:28:04.127Z,20.74
2018-08-31T14:30:32.211Z,20.76
2018-08-31T14:33:00.264Z,20.97
2018-08-31T14:35:28.371Z,21.04
2018-08-31T14:37:56.434Z,20.64
2018-08-31T14:40:24.518Z,20.84
2018-08-31T14:42:53.879Z,20.97
2018-08-31T14:45:21.927Z,21.08
2018-08-31T14:47:49.998Z,21.18
2018-08-31T14:50:18.075Z,21.13
2018-08-31T14:52:46.135Z,21.18
2018-08-31T14:55:14.174Z,21.23
2018-08-31T14:57:42.324Z,21.27
2018-08-31T15:00:10.379Z,21.33
2018-08-31T15:02:38.573Z,21.29
2018-08-31T15:05:06.646Z,20.99
2018-08-31T15:07:34.732Z,21.00
2018-08-31T15:10:02.771Z,21.12
2018-08-31T15:12:30.837Z,21.16
2018-08-31T15:14:58.898Z,21.06
2018-08-31T15:17:27.013Z,21.11
2018-08-31T15:19:55.078Z,21.11
2018-08-31T15:22:23.121Z,21.08
2018-08-31T15:24:51.187Z,21.10
2018-08-31T15:27:19.216Z,20.97
2018-08-31T15:29:47.246Z,21.11
2018-08-31T15:32:15.277Z,21.21
2018-08-31T15:34:43.348Z,21.23
2018-08-31T15:37:11.956Z,21.25
2018-08-31T15:39:40.655Z,21.30
2018-08-31T15:42:08.771Z,21.28
2018-08-31T15:44:36.846Z,21.26
2018-08-31T15:47:05.423Z,21.12
2018-08-31T15:49:33.481Z,21.13
2018-08-31T15:52:01.615Z,21.07
2018-08-31T15:54:29.687Z,21.15
2018-08-31T15:56:57.745Z,21.09
2018-08-31T15:59:25.776Z,20.90
2018-08-31T16:01:53.831Z,20.70
2018-08-31T16:04:21.876Z,20.69
2018-08-31T16:06:49.915Z,20.64
2018-08-31T16:09:18.023Z,20.64
2018-08-31T16:11:46.109Z,20.63
2018-08-31T16:14:14.190Z,20.47
2018-08-31T16:16:42.226Z,20.34
2018-08-31T16:19:10.277Z,20.28
2018-08-31T16:21:38.436Z,20.41
2018-08-31T16:24:06.495Z,20.31
2018-08-31T16:26:34.509Z,20.10
2018-08-31T16:29:02.600Z,19.82
2018-08-31T16:31:30.640Z,19.79
2018-08-31T16:33:58.667Z,19.73
2018-08-31T16:36:26.708Z,19.72
2018-08-31T16:38:54.840Z,19.67
2018-08-31T16:41:22.789Z,19.70
2018-08-31T16:43:50.839Z,19.77
2018-08-31T16:46:18.867Z,19.74
2018-08-31T16:48:46.939Z,19.71
2018-08-31T16:51:15.029Z,19.69
2018-08-31T16:53:43.042Z,19.81
2018-08-31T16:56:11.075Z,19.80
2018-08-31T16:58:39.182Z,19.53
2018-08-31T17:01:07.292Z,19.71
2018-08-31T17:03:35.390Z,19.64
2018-08-31T17:06:03.468Z,19.45
2018-08-31T17:08:31.547Z,19.36
2018-08-31T17:10:59.695Z,19.38
2018-08-31T17:13:27.756Z,19.28
2018-08-31T17:15:55.818Z,19.29
2018-08-31T17:18:23.881Z,19.27
2018-08-31T17:20:52.136Z,19.22
2018-08-31T17:23:20.196Z,19.18
2018-08-31T17:25:48.239Z,19.14
2018-08-31T17:28:21.743Z,19.11
2018-08-31T17:30:53.972Z,19.04
2018-08-31T17:33:27.334Z,18.89
2018-08-31T17:36:00.695Z,18.91
2018-08-31T17:38:28.753Z,18.88
2018-08-31T17:40:56.810Z,18.79
2018-08-31T17:43:24.884Z,18.61
2018-08-31T17:45:52.930Z,18.57
2018-08-31T17:48:21.033Z,18.33
2018-08-31T17:50:49.261Z,18.28
2018-08-31T17:53:17.516Z,18.27
2018-08-31T17:55:45.656Z,18.23
2018-08-31T17:58:13.836Z,18.15
2018-08-31T18:00:42.043Z,18.10
2018-08-31T18:03:10.158Z,18.02
2018-08-31T18:05:38.417Z,17.96
2018-08-31T18:08:06.522Z,17.87
2018-08-31T18:10:34.625Z,17.85
2018-08-31T18:13:02.697Z,17.80
2018-08-31T18:15:30.922Z,17.76
2018-08-31T18:17:58.899Z,17.71
2018-08-31T18:20:27.030Z,17.46
2018-08-31T18:22:55.190Z,17.47
2018-08-31T18:25:23.418Z,17.44
2018-08-31T18:27:51.567Z,17.39
2018-08-31T18:30:19.901Z,17.34
2018-08-31T18:32:48.199Z,17.23
2018-08-31T18:35:16.433Z,17.25
2018-08-31T18:37:44.570Z,16.93
2018-08-31T18:40:12.612Z,17.16
2018-08-31T18:42:40.664Z,17.12
2018-08-31T18:45:08.730Z,17.02
2018-08-31T18:47:36.853Z,16.96
2018-08-31T18:50:05.159Z,16.93
2018-08-31T18:52:33.357Z,16.92
2018-08-31T18:55:01.331Z,16.85
2018-08-31T18:57:29.358Z,16.81
2018-08-31T18:59:57.431Z,16.76
2018-08-31T19:02:25.492Z,16.70
2018-08-31T19:04:53.616Z,16.67
2018-08-31T19:07:21.775Z,16.63
2018-08-31T19:09:49.944Z,16.57
2018-08-31T19:12:17.985Z,16.54
2018-08-31T19:14:46.059Z,16.48
2018-08-31T19:17:14.252Z,16.46
2018-08-31T19:19:42.334Z,16.40
2018-08-31T19:22:10.414Z,16.33
2018-08-31T19:24:38.576Z,16.27
2018-08-31T19:27:07.101Z,16.25
2018-08-31T19:29:35.131Z,16.22
2018-08-31T19:32:03.192Z,16.19
2018-08-31T19:34:31.225Z,16.13
2018-08-31T19:36:59.280Z,16.12
2018-08-31T19:39:27.346Z,16.08
2018-08-31T19:41:55.511Z,16.05
2018-08-31T19:44:23.983Z,16.00
2018-08-31T19:46:52.336Z,15.96
2018-08-31T19:49:20.323Z,15.91
2018-08-31T19:51:48.423Z,15.89
2018-08-31T19:54:16.495Z,15.86
2018-08-31T19:56:44.548Z,15.85
2018-08-31T19:59:12.651Z,15.83
2018-08-31T20:01:40.969Z,15.81
2018-08-31T20:04:09.001Z,15.77
2018-08-31T20:06:37.101Z,15.75
2018-08-31T20:09:07.243Z,15.73
2018-08-31T20:11:35.285Z,15.71
2018-08-31T20:14:03.403Z,15.70
2018-08-31T20:16:31.459Z,15.67
2018-08-31T20:18:59.517Z,15.63
2018-08-31T20:21:27.603Z,15.54
2018-08-31T20:23:55.681Z,15.50
2018-08-31T20:26:23.760Z,15.48
2018-08-31T20:28:51.824Z,15.46
2018-08-31T20:31:19.874Z,15.42
2018-08-31T20:33:47.959Z,15.40
2018-08-31T20:36:16.109Z,15.34
2018-08-31T20:38:44.262Z,15.29
2018-08-31T20:41:12.303Z,15.29
2018-08-31T20:43:40.530Z,15.28
2018-08-31T20:46:08.636Z,15.30
2018-08-31T20:48:36.767Z,15.29
2018-08-31T20:51:05.119Z,15.24
2018-08-31T20:53:33.335Z,15.22
2018-08-31T20:56:01.498Z,15.22
2018-08-31T20:58:29.565Z,15.22
2018-08-31T21:00:57.724Z,15.20
2018-08-31T21:03:25.919Z,15.18
2018-08-31T21:05:54.046Z,15.19
2018-08-31T21:08:22.194Z,15.20
2018-08-31T21:10:50.263Z,15.22
2018-08-31T21:13:18.317Z,15.25
2018-08-31T21:15:46.711Z,15.30
2018-08-31T21:18:14.775Z,15.31
2018-08-31T21:20:42.823Z,14.84
2018-08-31T21:23:10.928Z,15.34
2018-08-31T21:25:38.975Z,15.34
2018-08-31T21:28:07.109Z,15.33
2018-08-31T21:30:35.165Z,15.29
2018-08-31T21:33:03.254Z,15.28
2018-08-31T21:35:31.284Z,15.27
2018-08-31T21:37:59.328Z,15.27
2018-08-31T21:40:27.399Z,15.28
2018-08-31T21:42:55.480Z,15.29
2018-08-31T21:45:23.510Z,15.28
2018-08-31T21:47:51.567Z,15.30
2018-08-31T21:50:19.659Z,15.28
2018-08-31T21:52:47.742Z,15.27
2018-08-31T21:55:15.814Z,15.27
2018-08-31T21:57:43.868Z,15.27
2018-08-31T22:00:14.443Z,15.22
2018-08-31T22:02:42.495Z,15.20
2018-08-31T22:05:10.524Z,15.22
2018-08-31T22:07:38.598Z,15.23
2018-08-31T22:10:07.063Z,15.24
2018-08-31T22:12:35.118Z,15.26
2018-08-31T22:15:03.147Z,15.28
2018-08-31T22:17:31.347Z,15.30
2018-08-31T22:19:59.395Z,15.30
2018-08-31T22:22:27.527Z,15.33
2018-08-31T22:24:55.610Z,15.34
2018-08-31T22:27:23.791Z,15.32
2018-08-31T22:29:52.017Z,15.31
2018-08-31T22:32:20.097Z,15.30
2018-08-31T22:34:48.263Z,15.28
2018-08-31T22:37:16.815Z,15.29
2018-08-31T22:39:44.887Z,15.27
2018-08-31T22:42:13.038Z,15.25
2018-08-31T22:44:41.091Z,15.27
2018-08-31T22:47:09.237Z,15.28
2018-08-31T22:49:37.381Z,15.26
2018-08-31T22:52:05.704Z,15.24
2018-08-31T22:54:33.738Z,15.23
2018-08-31T22:57:01.804Z,15.23
2018-08-31T22:59:29.899Z,15.23
2018-08-31T23:01:57.949Z,15.22
2018-08-31T23:04:26.012Z,15.21
2018-08-31T23:06:54.108Z,15.20
2018-08-31T23:09:22.207Z,15.19
2018-08-31T23:11:50.260Z,15.14
2018-08-31T23:14:18.344Z,15.14
2018-08-31T23:16:46.419Z,15.13
2018-08-31T23:19:14.491Z,15.13
2018-08-31T23:21:42.526Z,15.10
2018-08-31T23:24:10.632Z,15.09
2018-08-31T23:26:38.732Z,15.09
2018-08-31T23:29:07.000Z,15.09
2018-08-31T23:31:35.040Z,15.08
2018-08-31T23:34:03.151Z,15.08
2018-08-31T23:36:31.192Z,15.09
2018-08-31T23:38:59.280Z,15.08
2018-08-31T23:41:27.375Z,15.09
2018-08-31T23:43:55.468Z,15.08
2018-08-31T23:46:23.537Z,15.08
2018-08-31T23:48:51.620Z,15.02
2018-08-31T23:51:19.651Z,14.98
2018-08-31T23:53:47.681Z,14.96
2018-08-31T23:56:16.092Z,14.94
2018-08-31T23:58:44.143Z,14.93
